createdAt,value
2018-03-22T00:01:37.989Z,12.43
2018-03-22T00:04:04.461Z,14.87
2018-03-22T00:06:30.860Z,13.75
2018-03-22T00:08:57.256Z,11.60
2018-03-22T00:11:23.653Z,12.05
2018-03-22T00:13:50.058Z,12.30
2018-03-22T00:16:16.442Z,12.57
2018-03-22T00:18:42.979Z,11.95
2018-03-22T00:21:09.368Z,11.90
2018-03-22T00:23:35.758Z,12.82
2018-03-22T00:26:02.969Z,11.70
2018-03-22T00:28:29.374Z,12.50
2018-03-22T00:30:55.829Z,12.75
2018-03-22T00:33:22.215Z,12.80
2018-03-22T00:35:49.352Z,11.73
2018-03-22T00:38:16.485Z,13.88
2018-03-22T00:40:42.867Z,12.00
2018-03-22T00:43:09.260Z,13.40
2018-03-22T00:45:35.655Z,11.70
2018-03-22T00:48:02.035Z,12.48
2018-03-22T00:50:29.168Z,10.57
2018-03-22T00:52:55.575Z,13.20
2018-03-22T00:55:21.945Z,12.63
2018-03-22T00:57:49.972Z,12.68
2018-03-22T01:00:16.389Z,12.75
2018-03-22T01:02:42.759Z,12.57
2018-03-22T01:05:09.150Z,13.05
2018-03-22T01:07:35.535Z,12.88
2018-03-22T01:10:01.931Z,13.15
2018-03-22T01:12:28.330Z,12.40
2018-03-22T01:14:54.720Z,12.88
2018-03-22T01:17:21.097Z,11.07
2018-03-22T01:19:47.552Z,13.23
2018-03-22T01:22:13.939Z,12.02
2018-03-22T01:24:41.258Z,11.90
2018-03-22T01:27:07.638Z,10.93
2018-03-22T01:29:34.744Z,12.07
2018-03-22T01:32:01.201Z,11.07
2018-03-22T01:34:28.349Z,11.50
2018-03-22T01:36:54.727Z,12.02
2018-03-22T01:39:21.242Z,13.45
2018-03-22T01:41:47.642Z,20.55
2018-03-22T01:44:14.013Z,14.82
2018-03-22T01:46:40.386Z,12.30
2018-03-22T01:49:06.760Z,11.43
2018-03-22T01:51:33.159Z,12.20
2018-03-22T01:53:59.542Z,12.90
2018-03-22T01:56:25.932Z,11.70
2018-03-22T01:58:52.327Z,11.45
2018-03-22T02:01:18.700Z,11.73
2018-03-22T02:03:45.825Z,10.27
2018-03-22T02:06:12.225Z,14.30
2018-03-22T02:08:38.636Z,12.43
2018-03-22T02:11:05.025Z,12.45
2018-03-22T02:13:31.409Z,13.32
2018-03-22T02:15:57.798Z,12.50
2018-03-22T02:18:24.189Z,13.75
2018-03-22T02:20:50.779Z,13.00
2018-03-22T02:23:17.973Z,11.77
2018-03-22T02:25:44.370Z,12.07
2018-03-22T02:28:11.500Z,11.50
2018-03-22T02:30:38.629Z,11.68
2018-03-22T02:33:05.016Z,12.00
2018-03-22T02:35:32.151Z,12.23
2018-03-22T02:37:58.531Z,14.45
2018-03-22T02:40:24.907Z,12.52
2018-03-22T02:42:51.331Z,13.30
2018-03-22T02:45:17.742Z,13.62
2018-03-22T02:47:44.161Z,12.18
2018-03-22T02:50:10.557Z,13.50
2018-03-22T02:52:36.972Z,13.55
2018-03-22T02:55:04.107Z,12.80
2018-03-22T02:57:30.512Z,11.80
2018-03-22T02:59:56.883Z,10.55
2018-03-22T03:02:24.016Z,12.27
2018-03-22T03:04:51.162Z,12.37
2018-03-22T03:07:17.573Z,12.80
2018-03-22T03:09:43.942Z,12.70
2018-03-22T03:12:11.070Z,11.02
2018-03-22T03:14:38.943Z,13.80
2018-03-22T03:17:05.345Z,11.60
2018-03-22T03:19:31.724Z,12.10
2018-03-22T03:21:58.854Z,11.70
2018-03-22T03:24:25.264Z,11.65
2018-03-22T03:26:51.764Z,11.52
2018-03-22T03:29:18.162Z,11.55
2018-03-22T03:31:45.288Z,11.98
2018-03-22T03:34:11.670Z,13.13
2018-03-22T03:36:38.138Z,12.73
2018-03-22T03:39:04.574Z,10.90
2018-03-22T03:41:30.995Z,15.40
2018-03-22T03:43:57.378Z,13.02
2018-03-22T03:46:24.512Z,11.45
2018-03-22T03:48:50.913Z,11.50
2018-03-22T03:51:17.288Z,11.82
2018-03-22T03:53:43.675Z,11.43
2018-03-22T03:56:10.067Z,11.48
2018-03-22T03:58:37.191Z,11.73
2018-03-22T04:01:03.594Z,10.93
2018-03-22T04:03:30.061Z,12.52
2018-03-22T04:05:56.425Z,11.00
2018-03-22T04:08:22.811Z,12.93
2018-03-22T04:10:49.194Z,10.10
2018-03-22T04:13:15.642Z,9.90
2018-03-22T04:15:42.078Z,12.23
2018-03-22T04:18:08.554Z,10.95
2018-03-22T04:20:35.700Z,12.23
2018-03-22T04:23:02.073Z,11.80
2018-03-22T04:25:28.448Z,12.07
2018-03-22T04:27:54.828Z,12.73
2018-03-22T04:30:21.225Z,14.07
2018-03-22T04:32:47.598Z,12.57
2018-03-22T04:35:14.051Z,12.88
2018-03-22T04:37:40.533Z,13.15
2018-03-22T04:40:07.655Z,42.10
2018-03-22T04:42:34.028Z,14.32
2018-03-22T04:45:01.157Z,12.52
2018-03-22T04:47:28.267Z,13.90
2018-03-22T04:49:54.668Z,11.80
2018-03-22T04:52:21.046Z,14.05
2018-03-22T04:54:47.465Z,12.95
2018-03-22T04:57:15.351Z,13.52
2018-03-22T04:59:41.742Z,12.90
2018-03-22T05:02:08.129Z,12.90
2018-03-22T05:04:34.517Z,14.40
2018-03-22T05:07:00.894Z,12.60
2018-03-22T05:09:28.022Z,13.25
2018-03-22T05:11:55.023Z,15.25
2018-03-22T05:14:21.400Z,16.50
2018-03-22T05:16:47.783Z,14.93
2018-03-22T05:19:14.174Z,13.57
2018-03-22T05:21:40.573Z,15.50
2018-03-22T05:24:06.960Z,12.82
2018-03-22T05:26:33.359Z,12.93
2018-03-22T05:28:59.750Z,13.73
2018-03-22T05:31:26.143Z,14.45
2018-03-22T05:33:52.526Z,12.82
2018-03-22T05:36:19.004Z,13.75
2018-03-22T05:38:46.172Z,11.50
2018-03-22T05:41:13.301Z,12.27
2018-03-22T05:43:39.781Z,11.57
2018-03-22T05:46:06.207Z,15.88
2018-03-22T05:48:32.598Z,15.93
2018-03-22T05:50:58.987Z,16.00
2018-03-22T05:53:25.370Z,15.30
2018-03-22T05:55:51.747Z,16.65
2018-03-22T05:58:18.154Z,12.75
2018-03-22T06:00:44.562Z,16.48
2018-03-22T06:03:10.983Z,15.05
2018-03-22T06:05:37.320Z,15.98
2018-03-22T06:08:05.441Z,15.98
2018-03-22T06:10:31.859Z,18.40
2018-03-22T06:12:58.301Z,18.17
2018-03-22T06:15:24.735Z,18.23
2018-03-22T06:17:51.133Z,17.00
2018-03-22T06:20:18.271Z,18.05
2018-03-22T06:22:44.706Z,17.83
2018-03-22T06:25:11.100Z,18.40
2018-03-22T06:27:37.497Z,17.33
2018-03-22T06:30:04.669Z,17.87
2018-03-22T06:32:31.100Z,18.10
2018-03-22T06:34:57.518Z,18.57
2018-03-22T06:37:23.930Z,19.30
2018-03-22T06:39:51.071Z,22.10
2018-03-22T06:42:18.225Z,18.60
2018-03-22T06:44:45.420Z,17.77
2018-03-22T06:47:11.903Z,18.83
2018-03-22T06:49:39.055Z,23.70
2018-03-22T06:52:06.242Z,20.40
2018-03-22T06:54:32.629Z,19.37
2018-03-22T06:56:59.104Z,22.13
2018-03-22T06:59:26.222Z,22.20
2018-03-22T07:01:53.427Z,20.67
2018-03-22T07:04:19.817Z,19.20
2018-03-22T07:06:46.954Z,17.23
2018-03-22T07:09:14.090Z,20.50
2018-03-22T07:11:40.480Z,20.10
2018-03-22T07:14:06.854Z,17.37
2018-03-22T07:16:33.246Z,28.40
2018-03-22T07:18:59.639Z,16.10
2018-03-22T07:21:26.083Z,17.60
2018-03-22T07:23:52.492Z,18.60
2018-03-22T07:26:19.633Z,17.33
2018-03-22T07:28:46.091Z,28.33
2018-03-22T07:31:12.484Z,25.30
2018-03-22T07:33:38.873Z,16.67
2018-03-22T07:36:05.339Z,18.37
2018-03-22T07:38:31.765Z,18.33
2018-03-22T07:40:58.163Z,17.90
2018-03-22T07:43:31.340Z,20.47
2018-03-22T07:45:58.518Z,17.17
2018-03-22T07:48:25.098Z,21.37
2018-03-22T07:50:51.555Z,26.00
2018-03-22T07:53:17.958Z,16.47
2018-03-22T07:55:44.411Z,17.43
2018-03-22T07:58:10.807Z,50.13
2018-03-22T08:00:37.239Z,45.13
2018-03-22T08:03:03.651Z,17.30
2018-03-22T08:05:30.016Z,16.43
2018-03-22T08:07:56.395Z,16.47
2018-03-22T08:10:23.542Z,23.23
2018-03-22T08:12:50.710Z,16.30
2018-03-22T08:15:17.112Z,22.30
2018-03-22T08:17:44.220Z,17.10
2018-03-22T08:20:10.598Z,18.13
2018-03-22T08:22:37.951Z,17.67
2018-03-22T08:25:05.123Z,19.27
2018-03-22T08:27:31.600Z,15.57
2018-03-22T08:29:58.098Z,17.27
2018-03-22T08:32:24.485Z,14.20
2018-03-22T08:34:52.346Z,11.70
2018-03-22T08:37:18.756Z,13.23
2018-03-22T08:39:45.169Z,17.77
2018-03-22T08:42:11.550Z,13.60
2018-03-22T08:44:37.934Z,11.70
2018-03-22T08:47:04.321Z,28.47
2018-03-22T08:49:30.721Z,15.63
2018-03-22T08:51:57.121Z,12.50
2018-03-22T08:54:23.568Z,9.53
2018-03-22T08:56:49.988Z,9.13
2018-03-22T08:59:16.371Z,8.90
2018-03-22T09:01:42.749Z,6.77
2018-03-22T09:04:09.140Z,5.50
2018-03-22T09:06:37.012Z,5.40
2018-03-22T09:09:03.436Z,4.73
2018-03-22T09:11:29.840Z,5.37
2018-03-22T09:13:56.247Z,4.73
2018-03-22T09:16:22.640Z,5.07
2018-03-22T09:18:49.038Z,5.23
2018-03-22T09:21:15.485Z,4.63
2018-03-22T09:23:41.910Z,4.67
2018-03-22T09:26:08.302Z,5.00
2018-03-22T09:28:34.701Z,4.33
2018-03-22T09:31:01.120Z,5.20
2018-03-22T09:33:28.988Z,5.47
2018-03-22T09:35:56.112Z,6.23
2018-03-22T09:38:22.516Z,4.13
2018-03-22T09:40:49.684Z,5.07
2018-03-22T09:43:16.070Z,5.00
2018-03-22T09:45:42.464Z,5.40
2018-03-22T09:48:08.882Z,4.67
2018-03-22T09:50:35.275Z,5.13
2018-03-22T09:53:02.507Z,4.87
2018-03-22T09:55:28.899Z,8.20
2018-03-22T09:57:55.340Z,4.27
2018-03-22T10:00:21.747Z,4.50
2018-03-22T10:02:48.126Z,5.30
2018-03-22T10:05:15.997Z,4.77
2018-03-22T10:07:43.901Z,8.50
2018-03-22T10:10:10.313Z,5.70
2018-03-22T10:12:37.447Z,5.43
2018-03-22T10:15:03.892Z,5.60
2018-03-22T10:17:31.037Z,7.97
2018-03-22T10:19:57.419Z,5.90
2018-03-22T10:22:23.803Z,11.67
2018-03-22T10:24:50.188Z,7.03
2018-03-22T10:27:16.584Z,8.33
2018-03-22T10:29:43.749Z,5.80
2018-03-22T10:32:10.165Z,5.50
2018-03-22T10:34:37.381Z,6.03
2018-03-22T10:37:03.797Z,7.70
2018-03-22T10:39:30.178Z,6.47
2018-03-22T10:41:57.423Z,6.27
2018-03-22T10:44:24.547Z,5.33
2018-03-22T10:46:52.471Z,6.30
2018-03-22T10:49:18.870Z,6.10
2018-03-22T10:51:46.012Z,5.80
2018-03-22T10:54:13.142Z,7.50
2018-03-22T10:56:39.530Z,7.77
2018-03-22T10:59:05.972Z,6.67
2018-03-22T11:01:38.571Z,5.70
2018-03-22T11:04:06.779Z,5.50
2018-03-22T11:06:33.926Z,5.23
2018-03-22T11:09:00.317Z,5.50
2018-03-22T11:11:26.781Z,6.40
2018-03-22T11:13:53.248Z,5.80
2018-03-22T11:16:19.629Z,6.50
2018-03-22T11:18:45.999Z,5.80
2018-03-22T11:21:13.176Z,6.07
2018-03-22T11:23:39.602Z,6.20
2018-03-22T11:26:06.015Z,6.07
2018-03-22T11:28:32.408Z,6.00
2018-03-22T11:30:58.819Z,8.00
2018-03-22T11:33:25.213Z,7.33
2018-03-22T11:35:52.358Z,6.40
2018-03-22T11:38:18.728Z,6.97
2018-03-22T11:40:45.153Z,7.40
2018-03-22T11:43:11.540Z,6.80
2018-03-22T11:45:39.488Z,8.10
2018-03-22T11:48:05.856Z,6.23
2018-03-22T11:50:32.262Z,6.80
2018-03-22T11:52:58.651Z,8.30
2018-03-22T11:55:25.035Z,7.17
2018-03-22T11:57:52.889Z,6.43
2018-03-22T12:00:19.287Z,6.97
2018-03-22T12:02:45.709Z,12.30
2018-03-22T12:05:12.886Z,4.73
2018-03-22T12:07:39.268Z,6.10
2018-03-22T12:10:05.879Z,7.47
2018-03-22T12:12:32.374Z,7.43
2018-03-22T12:14:58.736Z,6.63
2018-03-22T12:17:25.139Z,7.30
2018-03-22T12:19:52.258Z,7.50
2018-03-22T12:22:19.416Z,7.73
2018-03-22T12:24:45.830Z,5.80
2018-03-22T12:27:12.219Z,6.43
2018-03-22T12:29:38.615Z,10.97
2018-03-22T12:32:05.751Z,7.57
2018-03-22T12:34:32.124Z,7.20
2018-03-22T12:36:58.519Z,10.13
2018-03-22T12:39:25.655Z,6.37
2018-03-22T12:41:52.046Z,11.93
2018-03-22T12:44:18.431Z,7.70
2018-03-22T12:46:45.585Z,7.73
2018-03-22T12:49:12.713Z,7.37
2018-03-22T12:51:39.124Z,7.27
2018-03-22T12:54:05.557Z,6.93
2018-03-22T12:56:31.953Z,7.20
2018-03-22T12:58:58.358Z,7.60
2018-03-22T13:01:25.495Z,7.03
2018-03-22T13:03:51.893Z,6.00
2018-03-22T13:06:18.286Z,6.90
2018-03-22T13:08:45.422Z,6.70
2018-03-22T13:11:12.539Z,9.70
2018-03-22T13:13:39.961Z,7.33
2018-03-22T13:16:06.363Z,7.10
2018-03-22T13:18:33.491Z,7.73
2018-03-22T13:20:59.863Z,6.80
2018-03-22T13:23:26.316Z,7.60
2018-03-22T13:25:52.732Z,7.20
2018-03-22T13:28:19.143Z,7.70
2018-03-22T13:30:46.272Z,6.67
2018-03-22T13:33:12.713Z,6.80
2018-03-22T13:35:39.852Z,7.07
2018-03-22T13:38:06.256Z,7.03
2018-03-22T13:40:32.661Z,6.33
2018-03-22T13:42:59.788Z,6.70
2018-03-22T13:45:26.941Z,7.90
2018-03-22T13:47:54.077Z,7.57
2018-03-22T13:50:21.196Z,7.30
2018-03-22T13:52:47.596Z,9.37
2018-03-22T13:55:14.049Z,6.50
2018-03-22T13:57:40.453Z,16.10
2018-03-22T14:00:06.868Z,6.20
2018-03-22T14:02:34.019Z,7.40
2018-03-22T14:05:01.156Z,6.90
2018-03-22T14:07:27.563Z,8.20
2018-03-22T14:09:53.950Z,7.70
2018-03-22T14:12:20.333Z,7.90
2018-03-22T14:14:46.715Z,7.20
2018-03-22T14:17:13.123Z,8.77
2018-03-22T14:19:40.267Z,6.73
2018-03-22T14:22:06.630Z,6.90
2018-03-22T14:24:33.024Z,9.13
2018-03-22T14:26:59.396Z,6.07
2018-03-22T14:29:25.823Z,6.30
2018-03-22T14:31:52.224Z,5.97
2018-03-22T14:34:18.668Z,7.57
2018-03-22T14:36:45.808Z,6.57
2018-03-22T14:39:12.189Z,7.20
2018-03-22T14:41:39.498Z,6.70
2018-03-22T14:44:06.647Z,6.53
2018-03-22T14:46:33.033Z,6.73
2018-03-22T14:48:59.437Z,6.97
2018-03-22T14:51:25.820Z,7.33
2018-03-22T14:53:52.202Z,6.47
2018-03-22T14:56:18.661Z,5.83
2018-03-22T14:58:45.108Z,7.00
2018-03-22T15:01:13.036Z,6.37
2018-03-22T15:03:39.752Z,8.83
2018-03-22T15:06:06.121Z,6.73
2018-03-22T15:08:32.535Z,7.50
2018-03-22T15:10:59.672Z,10.30
2018-03-22T15:13:26.796Z,6.60
2018-03-22T15:15:53.948Z,6.00
2018-03-22T15:18:21.819Z,7.70
2018-03-22T15:20:49.691Z,5.73
2018-03-22T15:23:16.128Z,5.60
2018-03-22T15:25:43.301Z,6.00
2018-03-22T15:28:10.436Z,7.80
2018-03-22T15:30:37.577Z,6.83
2018-03-22T15:33:04.728Z,6.60
2018-03-22T15:35:31.869Z,8.10
2018-03-22T15:37:59.008Z,10.37
2018-03-22T15:40:26.907Z,6.83
2018-03-22T15:42:53.293Z,7.03
2018-03-22T15:45:19.660Z,7.07
2018-03-22T15:47:46.781Z,6.43
2018-03-22T15:50:13.184Z,7.03
2018-03-22T15:52:40.392Z,7.93
2018-03-22T15:55:06.776Z,7.13
2018-03-22T15:57:33.186Z,7.23
2018-03-22T16:00:00.378Z,6.70
2018-03-22T16:02:26.806Z,7.00
2018-03-22T16:04:53.230Z,7.70
2018-03-22T16:07:19.611Z,7.13
2018-03-22T16:09:46.798Z,7.70
2018-03-22T16:12:13.225Z,6.80
2018-03-22T16:14:39.643Z,7.87
2018-03-22T16:17:06.023Z,8.60
2018-03-22T16:19:32.413Z,8.47
2018-03-22T16:21:58.825Z,8.60
2018-03-22T16:24:25.969Z,8.90
2018-03-22T16:26:53.077Z,9.70
2018-03-22T16:29:19.521Z,8.57
2018-03-22T16:31:45.919Z,8.70
2018-03-22T16:34:12.312Z,7.33
2018-03-22T16:36:39.471Z,7.30
2018-03-22T16:39:06.604Z,6.70
2018-03-22T16:41:33.769Z,6.80
2018-03-22T16:44:00.168Z,6.57
2018-03-22T16:46:26.559Z,8.00
2018-03-22T16:48:55.135Z,7.50
2018-03-22T16:51:21.505Z,6.60
2018-03-22T16:53:48.160Z,6.43
2018-03-22T16:56:15.305Z,5.83
2018-03-22T16:58:41.690Z,6.60
2018-03-22T17:01:08.080Z,5.77
2018-03-22T17:03:34.475Z,6.90
2018-03-22T17:06:00.882Z,6.37
2018-03-22T17:08:27.277Z,6.13
2018-03-22T17:10:54.420Z,6.33
2018-03-22T17:13:22.308Z,7.80
2018-03-22T17:15:49.434Z,6.53
2018-03-22T17:18:15.822Z,6.30
2018-03-22T17:20:42.215Z,9.87
2018-03-22T17:23:09.368Z,7.00
2018-03-22T17:25:36.511Z,7.13
2018-03-22T17:28:02.927Z,7.50
2018-03-22T17:30:30.801Z,7.80
2018-03-22T17:32:57.932Z,9.80
2018-03-22T17:35:25.801Z,7.13
2018-03-22T17:37:52.188Z,9.33
2018-03-22T17:40:18.623Z,8.33
2018-03-22T17:42:45.088Z,7.50
2018-03-22T17:45:12.997Z,6.90
2018-03-22T17:47:40.125Z,7.13
2018-03-22T17:50:06.513Z,11.40
2018-03-22T17:52:32.915Z,8.33
2018-03-22T17:55:00.093Z,7.77
2018-03-22T17:57:26.491Z,6.57
2018-03-22T17:59:53.621Z,7.70
2018-03-22T18:02:20.014Z,7.53
2018-03-22T18:04:46.439Z,7.47
2018-03-22T18:07:12.827Z,8.10
2018-03-22T18:09:39.225Z,9.43
2018-03-22T18:12:05.645Z,7.07
2018-03-22T18:14:32.067Z,8.03
2018-03-22T18:16:58.443Z,6.50
2018-03-22T18:19:24.837Z,6.77
2018-03-22T18:21:51.256Z,6.80
2018-03-22T18:24:17.680Z,6.80
2018-03-22T18:26:44.073Z,8.00
2018-03-22T18:29:10.474Z,7.30
2018-03-22T18:31:36.888Z,6.80
2018-03-22T18:34:03.290Z,8.00
2018-03-22T18:36:30.416Z,7.67
2018-03-22T18:38:56.807Z,7.83
2018-03-22T18:41:23.339Z,7.90
2018-03-22T18:43:49.785Z,7.80
2018-03-22T18:46:16.209Z,7.80
2018-03-22T18:48:48.761Z,7.53
2018-03-22T18:51:15.174Z,8.60
2018-03-22T18:53:42.308Z,8.93
2018-03-22T18:56:08.686Z,8.30
2018-03-22T18:58:35.091Z,8.47
2018-03-22T19:01:02.264Z,8.77
2018-03-22T19:03:28.701Z,9.07
2018-03-22T19:05:55.303Z,7.93
2018-03-22T19:08:21.691Z,8.83
2018-03-22T19:10:48.991Z,9.20
2018-03-22T19:13:15.381Z,9.97
2018-03-22T19:15:41.767Z,8.33
2018-03-22T19:18:08.923Z,9.20
2018-03-22T19:20:35.387Z,8.20
2018-03-22T19:23:01.795Z,8.57
2018-03-22T19:25:28.182Z,9.83
2018-03-22T19:27:54.572Z,8.33
2018-03-22T19:30:20.972Z,9.30
2018-03-22T19:32:47.369Z,12.07
2018-03-22T19:35:13.771Z,11.80
2018-03-22T19:37:40.208Z,10.57
2018-03-22T19:40:07.322Z,11.13
2018-03-22T19:42:34.514Z,11.10
2018-03-22T19:45:00.944Z,10.10
2018-03-22T19:47:27.366Z,9.90
2018-03-22T19:49:53.794Z,11.83
2018-03-22T19:52:20.227Z,11.17
2018-03-22T19:54:46.631Z,13.53
2018-03-22T19:57:13.793Z,11.63
2018-03-22T19:59:40.943Z,10.50
2018-03-22T20:02:08.131Z,11.03
2018-03-22T20:04:34.550Z,12.20
2018-03-22T20:07:00.966Z,10.37
2018-03-22T20:09:27.392Z,9.50
2018-03-22T20:11:53.793Z,8.90
2018-03-22T20:14:20.226Z,9.60
2018-03-22T20:16:46.619Z,9.80
2018-03-22T20:19:13.040Z,9.10
2018-03-22T20:21:39.477Z,10.60
2018-03-22T20:24:05.935Z,10.70
2018-03-22T20:26:32.355Z,9.70
2018-03-22T20:28:58.817Z,11.40
2018-03-22T20:31:25.254Z,10.20
2018-03-22T20:33:51.663Z,11.60
2018-03-22T20:36:18.095Z,10.30
2018-03-22T20:38:44.500Z,11.30
2018-03-22T20:41:10.899Z,9.93
2018-03-22T20:43:38.042Z,12.33
2018-03-22T20:46:05.234Z,11.03
2018-03-22T20:48:31.612Z,10.03
2018-03-22T20:50:57.993Z,10.33
2018-03-22T20:53:24.404Z,11.67
2018-03-22T20:55:51.547Z,11.33
2018-03-22T20:58:18.757Z,10.90
2018-03-22T21:00:45.153Z,11.17
2018-03-22T21:03:12.313Z,11.47
2018-03-22T21:05:38.717Z,13.10
2018-03-22T21:08:05.900Z,11.63
2018-03-22T21:10:32.288Z,10.70
2018-03-22T21:12:58.665Z,11.50
2018-03-22T21:15:25.057Z,11.53
2018-03-22T21:17:52.197Z,10.30
2018-03-22T21:20:19.314Z,10.83
2018-03-22T21:22:45.701Z,10.80
2018-03-22T21:25:12.833Z,10.77
2018-03-22T21:27:39.205Z,11.10
2018-03-22T21:30:05.629Z,11.10
2018-03-22T21:32:32.025Z,10.60
2018-03-22T21:34:59.901Z,11.30
2018-03-22T21:37:27.044Z,11.17
2018-03-22T21:39:53.451Z,12.60
2018-03-22T21:42:19.849Z,10.17
2018-03-22T21:44:46.247Z,11.23
2018-03-22T21:47:25.685Z,11.97
2018-03-22T21:49:52.819Z,11.53
2018-03-22T21:52:31.386Z,11.37
2018-03-22T21:54:57.781Z,12.23
2018-03-22T21:57:24.154Z,11.67
2018-03-22T21:59:50.559Z,11.30
2018-03-22T22:02:17.703Z,12.13
2018-03-22T22:04:44.827Z,11.80
2018-03-22T22:07:11.224Z,12.80
2018-03-22T22:09:37.687Z,11.27
2018-03-22T22:12:04.079Z,12.83
2018-03-22T22:14:30.468Z,12.40
2018-03-22T22:16:56.888Z,12.10
2018-03-22T22:19:23.289Z,12.40
2018-03-22T22:21:49.724Z,11.80
2018-03-22T22:24:16.111Z,11.73
2018-03-22T22:26:43.260Z,12.23
2018-03-22T22:29:10.399Z,13.63
2018-03-22T22:31:37.550Z,12.83
2018-03-22T22:34:04.689Z,12.70
2018-03-22T22:36:31.125Z,14.57
2018-03-22T22:38:57.561Z,14.37
2018-03-22T22:41:23.953Z,14.33
2018-03-22T22:43:50.334Z,14.53
2018-03-22T22:46:16.712Z,13.33
2018-03-22T22:48:43.113Z,13.90
2018-03-22T22:51:09.530Z,13.37
2018-03-22T22:53:36.644Z,13.50
2018-03-22T22:56:03.067Z,12.80
2018-03-22T22:58:29.459Z,14.43
2018-03-22T23:00:55.875Z,13.67
2018-03-22T23:03:23.045Z,13.80
2018-03-22T23:05:49.438Z,14.13
2018-03-22T23:08:15.879Z,14.03
2018-03-22T23:10:42.439Z,13.53
2018-03-22T23:13:08.844Z,13.07
2018-03-22T23:15:35.283Z,12.60
2018-03-22T23:18:01.675Z,14.63
2018-03-22T23:20:28.060Z,13.87
2018-03-22T23:22:55.168Z,14.70
2018-03-22T23:25:21.561Z,13.17
2018-03-22T23:27:48.026Z,13.37
2018-03-22T23:30:14.417Z,12.80
2018-03-22T23:32:40.796Z,12.60
2018-03-22T23:35:07.220Z,12.80
2018-03-22T23:37:33.653Z,13.13
2018-03-22T23:40:00.043Z,12.57
2018-03-22T23:42:27.193Z,14.63
2018-03-22T23:44:54.322Z,14.00
2018-03-22T23:47:21.465Z,15.67
2018-03-22T23:49:47.875Z,14.50
2018-03-22T23:52:14.270Z,15.63
2018-03-22T23:54:40.659Z,14.80
2018-03-22T23:57:07.083Z,14.43
2018-03-22T23:59:33.499Z,14.43
